Portland — WDG2201 — position and weather

sailwx.info

Track history (hours):
 
Tides and Currents Weather Stations Pressure Air Temp Water Temp Dewpoint Dewpoint Depression Visibility Wind Speed Wind Dir Waves Ship Positions

Portland

Owner: Shaver Transportation Company, Portland, OR. More information available from US FCC via Universal Licensing System and Coast Guard Vessel Documentation Center.

Last reported at 2015-Apr-27 18:06 UTC. Time now 2015-Apr-28 11:52 UTC.
Position N 45°39' W 122°45'.

Length 27 m; draft 4 m.

Type: Towing. MMSI: 367315814.

Date/timePositionNaut miles runAvg speedWind from/ knotsBaromVisibWave heightAir tempDewpointWater temp
2015-Apr-27 18:06N 45°39' W 122°45'0 0.0
2015-Apr-27 17:33N 45°39' W 122°45'0 0.0
2015-Apr-27 16:33N 45°39' W 122°45'0 0.0
2015-Apr-27 15:33N 45°39' W 122°45'0 0.0
2015-Apr-27 14:33N 45°39' W 122°45'0 0.0
2015-Apr-27 13:33N 45°39' W 122°45'0 0.3
2015-Apr-27 12:33N 45°39' W 122°45'0 0.3
2015-Apr-27 11:33N 45°39' W 122°45'0 0.0
2015-Apr-27 10:31N 45°39' W 122°45'0 0.0
2015-Apr-27 09:31N 45°39' W 122°45'0 0.0
2015-Apr-27 08:31N 45°39' W 122°45'0 0.0
2015-Apr-27 07:31N 45°39' W 122°45'0 0.0
2015-Apr-27 06:31N 45°39' W 122°45'0 0.0
2015-Apr-27 05:31N 45°39' W 122°45'0 0.0
2015-Apr-27 04:25N 45°39' W 122°45'0 0.0
2015-Apr-27 03:31N 45°39' W 122°45'0 0.0
2015-Apr-27 02:31N 45°39' W 122°45'0 0.0
2015-Apr-27 01:16N 45°39' W 122°45'0 0.0
2015-Apr-27 00:31N 45°39' W 122°45'0 0.0
2015-Apr-26 23:28N 45°39' W 122°45'0 0.0
2015-Apr-26 22:31N 45°39' W 122°45'0 0.0
2015-Apr-26 21:31N 45°39' W 122°45'0 0.0
2015-Apr-26 20:31N 45°39' W 122°45'0 0.0
2015-Apr-26 19:31N 45°39' W 122°45'0 0.0
2015-Apr-26 18:31N 45°39' W 122°45'0 0.0
2015-Apr-26 17:31N 45°39' W 122°45'0 0.0
2015-Apr-26 16:31N 45°39' W 122°45'0 0.0
2015-Apr-26 15:31N 45°39' W 122°45'0 0.0
2015-Apr-26 14:31N 45°39' W 122°45'0 0.0
2015-Apr-26 13:31N 45°39' W 122°45'0 0.0
2015-Apr-26 12:25N 45°39' W 122°45'0 0.0
2015-Apr-26 11:31N 45°39' W 122°45'0 0.0
2015-Apr-26 10:31N 45°39' W 122°45'0 0.0
2015-Apr-26 09:31N 45°39' W 122°45'0 0.0
2015-Apr-26 08:31N 45°39' W 122°45'0 0.0
2015-Apr-26 07:31N 45°39' W 122°45'0 0.0
2015-Apr-26 06:31N 45°39' W 122°45'0 0.0
2015-Apr-26 05:31N 45°39' W 122°45'0 0.0
2015-Apr-26 04:31N 45°39' W 122°45'0 0.0
2015-Apr-26 03:31N 45°39' W 122°45'0 0.0
2015-Apr-26 02:31N 45°39' W 122°45'0 0.0
2015-Apr-26 01:28N 45°39' W 122°45'0 0.0
2015-Apr-26 00:25N 45°39' W 122°45'0 0.0
2015-Apr-25 23:28N 45°39' W 122°45'1 1.6
2015-Apr-25 22:33N 45°38' W 122°43'0 0.0
2015-Apr-25 21:33N 45°38' W 122°43'1 1.4
2015-Apr-25 20:33N 45°39' W 122°45'0 0.0
2015-Apr-25 19:33N 45°39' W 122°45'0 0.0
2015-Apr-25 18:34N 45°39' W 122°45'0 0.0
2015-Apr-25 17:34N 45°39' W 122°45'0 0.0
2015-Apr-25 16:34N 45°39' W 122°45'0 0.0
2015-Apr-25 15:33N 45°39' W 122°45'0 0.0
2015-Apr-25 14:33N 45°39' W 122°45'0 0.0
2015-Apr-25 13:33N 45°39' W 122°45'0 0.0
2015-Apr-25 12:34N 45°39' W 122°45'0 0.2
2015-Apr-25 11:33N 45°39' W 122°45'1 1.4
2015-Apr-25 10:33N 45°38' W 122°43'2 1.5
2015-Apr-25 09:34N 45°39' W 122°45'0 0.4
2015-Apr-25 08:34N 45°39' W 122°45'0 0.4
2015-Apr-25 07:34N 45°39' W 122°45'0 0.0
2015-Apr-25 06:33N 45°39' W 122°45'0 0.0
2015-Apr-25 05:34N 45°39' W 122°45'0 0.0
2015-Apr-25 04:33N 45°39' W 122°45'0 0.0
2015-Apr-25 03:34N 45°39' W 122°45'0 0.0
2015-Apr-25 02:33N 45°39' W 122°45'0 0.0
2015-Apr-25 01:33N 45°39' W 122°45'0 0.0
2015-Apr-25 00:34N 45°39' W 122°45'1 0.6
2015-Apr-24 23:33N 45°39' W 122°46'3 3.1
2015-Apr-24 22:34N 45°36' W 122°46'1 0.9
2015-Apr-24 21:34N 45°37' W 122°47'5 4.5
2015-Apr-24 20:33N 45°33' W 122°43'1 0.5
2015-Apr-24 19:23N 45°34' W 122°44'0 0.0
2015-Apr-24 18:32N 45°34' W 122°44'0 0.0
2015-Apr-24 17:32N 45°34' W 122°44'0 0.0
2015-Apr-24 16:32N 45°34' W 122°44'0 0.0
2015-Apr-24 15:23N 45°34' W 122°44'0 0.0
2015-Apr-24 14:32N 45°34' W 122°44'0 0.0
2015-Apr-24 13:29N 45°34' W 122°44'0 0.0
2015-Apr-24 12:26N 45°34' W 122°44'0 0.0
2015-Apr-24 11:29N 45°34' W 122°44'0 0.0
2015-Apr-24 10:32N 45°34' W 122°44'0 0.0
2015-Apr-24 09:32N 45°34' W 122°44'0 0.0
2015-Apr-24 08:26N 45°34' W 122°44'0 0.0
2015-Apr-24 07:29N 45°34' W 122°44'0 0.0
2015-Apr-24 06:29N 45°34' W 122°44'0 0.0
2015-Apr-24 05:32N 45°34' W 122°44'0 0.0
2015-Apr-24 04:29N 45°34' W 122°44'0 0.0
2015-Apr-24 03:29N 45°34' W 122°44'0 0.0
2015-Apr-24 02:32N 45°34' W 122°44'0 0.0
2015-Apr-24 01:29N 45°34' W 122°44'0 0.0
2015-Apr-24 00:32N 45°34' W 122°44'0 0.0
2015-Apr-23 23:32N 45°34' W 122°44'0 0.0
2015-Apr-23 22:32N 45°34' W 122°44'0 0.0
2015-Apr-23 21:32N 45°34' W 122°44'0 0.0
2015-Apr-23 20:29N 45°34' W 122°44'0 0.1
2015-Apr-23 19:28N 45°34' W 122°44'0 0.0
2015-Apr-23 18:28N 45°34' W 122°44'0 0.0
2015-Apr-23 17:31N 45°34' W 122°44'0 0.0
2015-Apr-23 16:28N 45°34' W 122°44'0 0.0
2015-Apr-23 15:28N 45°34' W 122°44'0 0.0
2015-Apr-23 14:22N 45°34' W 122°44'0 0.0
2015-Apr-23 13:28N 45°34' W 122°44'0 0.0
2015-Apr-23 12:28N 45°34' W 122°44'0 0.0
2015-Apr-23 11:28N 45°34' W 122°44'0 0.0
2015-Apr-23 10:28N 45°34' W 122°44'0 0.0
2015-Apr-23 09:31N 45°34' W 122°44'0 0.0
2015-Apr-23 07:10N 45°34' W 122°44'0 0.0
2015-Apr-23 06:28N 45°34' W 122°44'0 0.0
2015-Apr-23 05:31N 45°34' W 122°44'0 0.0
2015-Apr-23 04:28N 45°34' W 122°44'0 0.0
2015-Apr-23 03:28N 45°34' W 122°44'0 0.0
2015-Apr-23 02:22N 45°34' W 122°44'0 0.0
2015-Apr-23 01:25N 45°34' W 122°44'0 0.0
2015-Apr-23 00:31N 45°34' W 122°44'0 0.0
2015-Apr-22 23:28N 45°34' W 122°44'0 0.0
2015-Apr-22 22:28N 45°34' W 122°44'0 0.0
2015-Apr-22 21:22N 45°34' W 122°44'0 0.0
2015-Apr-22 20:28N 45°34' W 122°44'0 0.0
2015-Apr-22 19:28N 45°34' W 122°44'6 6.2
2015-Apr-22 18:34N 45°39' W 122°46'3 2.4
2015-Apr-22 17:30N 45°38' W 122°42'2 2.0
2015-Apr-22 16:28N 45°39' W 122°45'0 0.0
2015-Apr-22 15:31N 45°39' W 122°45'0 0.0
2015-Apr-22 14:31N 45°39' W 122°45'0 0.0
2015-Apr-22 13:31N 45°39' W 122°45'0 0.0
2015-Apr-22 12:31N 45°39' W 122°45'0 0.0
2015-Apr-22 11:31N 45°39' W 122°45'0 0.0
2015-Apr-22 10:28N 45°39' W 122°45'0 0.0
2015-Apr-22 09:31N 45°39' W 122°45'0 0.0
2015-Apr-22 08:31N 45°39' W 122°45'0 0.0
2015-Apr-22 07:28N 45°39' W 122°45'0 0.0
2015-Apr-22 06:28N 45°39' W 122°45'0 0.0
2015-Apr-22 05:22N 45°39' W 122°45'0 0.0
2015-Apr-22 04:28N 45°39' W 122°45'0 0.0
2015-Apr-22 03:31N 45°39' W 122°45'0 0.0
2015-Apr-22 02:28N 45°39' W 122°45'0 0.0
2015-Apr-22 01:28N 45°39' W 122°45'0 0.0
2015-Apr-22 00:31N 45°39' W 122°45'0 0.0
2015-Apr-21 23:31N 45°39' W 122°45'0 0.0
2015-Apr-21 22:25N 45°39' W 122°45'0 0.0
2015-Apr-21 21:28N 45°39' W 122°45'0 0.0
2015-Apr-21 20:31N 45°39' W 122°45'0 0.0
2015-Apr-21 19:28N 45°39' W 122°45'0 0.0
2015-Apr-21 18:31N 45°39' W 122°45'0 0.0
2015-Apr-21 17:22N 45°39' W 122°45'0 0.0
2015-Apr-21 16:28N 45°39' W 122°45'0 0.0
2015-Apr-21 15:31N 45°39' W 122°45'0 0.0
2015-Apr-21 14:28N 45°39' W 122°45'0 0.0
2015-Apr-21 13:28N 45°39' W 122°45'0 0.0
2015-Apr-21 12:28N 45°39' W 122°45'0 0.0
2015-Apr-21 11:28N 45°39' W 122°45'0 0.0
2015-Apr-21 10:28N 45°39' W 122°45'0 0.0
2015-Apr-21 09:31N 45°39' W 122°45'0 0.0
2015-Apr-21 08:31N 45°39' W 122°45'0 0.0
2015-Apr-21 07:28N 45°39' W 122°45'0 0.0
2015-Apr-21 06:31N 45°39' W 122°45'0 0.0
2015-Apr-21 05:31N 45°39' W 122°45'0 0.0
2015-Apr-21 04:25N 45°39' W 122°45'0 0.0
2015-Apr-21 03:31N 45°39' W 122°45'0 0.0
2015-Apr-21 02:31N 45°39' W 122°45'0 0.0
2015-Apr-21 01:25N 45°39' W 122°45'0 0.0
2015-Apr-21 00:28N 45°39' W 122°45'0 0.0
2015-Apr-20 23:31N 45°39' W 122°45'0 0.0
2015-Apr-20 22:31N 45°39' W 122°45'0 0.0
2015-Apr-20 21:31N 45°39' W 122°45'0 0.0
2015-Apr-20 20:31N 45°39' W 122°45'0 0.0
2015-Apr-20 19:31N 45°39' W 122°45'0 0.0
2015-Apr-20 18:28N 45°39' W 122°45'0 0.0
2015-Apr-20 17:28N 45°39' W 122°45'0 0.0
2015-Apr-20 16:28N 45°39' W 122°45'0 0.0
2015-Apr-20 15:25N 45°39' W 122°45'0 0.0
2015-Apr-20 14:19N 45°39' W 122°45'0 0.0
2015-Apr-20 13:31N 45°39' W 122°45'0 0.0
2015-Apr-20 12:33N 45°39' W 122°45'3 2.9
2015-Apr-20 11:34N 45°36' W 122°47'1 1.4
2015-Apr-20 10:33N 45°37' W 122°47'2 2.1
2015-Apr-20 09:32N 45°39' W 122°45'0 0.0
2015-Apr-20 08:32N 45°39' W 122°45'0 0.0
2015-Apr-20 07:26N 45°39' W 122°45'0 0.3
2015-Apr-20 06:34N 45°39' W 122°45'1 1.3
2015-Apr-20 05:33N 45°38' W 122°43'2 1.6
2015-Apr-20 04:33N 45°39' W 122°45'0 0.0
2015-Apr-20 03:09N 45°39' W 122°45'0 0.0
2015-Apr-20 02:33N 45°39' W 122°45'0 0.0
2015-Apr-20 01:33N 45°39' W 122°45'0 0.0
2015-Apr-20 00:30N 45°39' W 122°45'0 0.0
2015-Apr-19 23:33N 45°39' W 122°45'0 0.0
2015-Apr-19 22:27N 45°39' W 122°45'0 0.0
2015-Apr-19 21:27N 45°39' W 122°45'0 0.0
2015-Apr-19 20:33N 45°39' W 122°45'0 0.0
2015-Apr-19 19:33N 45°39' W 122°45'0 0.0
2015-Apr-19 18:27N 45°39' W 122°45'0 0.0
2015-Apr-19 17:33N 45°39' W 122°45'0 0.0
2015-Apr-19 16:33N 45°39' W 122°45'0 0.0
2015-Apr-19 15:30N 45°39' W 122°45'0 0.0
2015-Apr-19 14:33N 45°39' W 122°45'0 0.0
2015-Apr-19 13:33N 45°39' W 122°45'0 0.0
2015-Apr-19 12:33N 45°39' W 122°45'1 0.8
2015-Apr-19 11:33N 45°39' W 122°46'1 0.6
2015-Apr-19 10:33N 45°39' W 122°47'1 1.0
2015-Apr-19 09:33N 45°39' W 122°45'0 0.0
2015-Apr-19 08:33N 45°39' W 122°45'0 0.0
2015-Apr-19 07:33N 45°39' W 122°45'1 1.3
2015-Apr-19 06:33N 45°38' W 122°43'1 1.1
2015-Apr-19 05:33N 45°38' W 122°42'0 0.3
2015-Apr-19 04:33N 45°38' W 122°42'2 2.1
2015-Apr-19 03:33N 45°39' W 122°45'0 0.0
2015-Apr-19 02:33N 45°39' W 122°45'0 0.0
2015-Apr-19 01:33N 45°39' W 122°45'0 0.0
2015-Apr-19 00:33N 45°39' W 122°45'0 0.0
2015-Apr-18 23:34N 45°39' W 122°45'0 0.0
2015-Apr-18 22:33N 45°39' W 122°45'0 0.0
2015-Apr-18 21:33N 45°39' W 122°45'0 0.0
2015-Apr-18 20:33N 45°39' W 122°45'0 0.0
2015-Apr-18 19:33N 45°39' W 122°45'0 0.0
2015-Apr-18 18:33N 45°39' W 122°45'0 0.0
2015-Apr-18 17:33N 45°39' W 122°45'0 0.0
2015-Apr-18 16:33N 45°39' W 122°45'0 0.0
2015-Apr-18 15:34N 45°39' W 122°45'4 4.3
2015-Apr-18 14:33N 45°34' W 122°45'1 0.9
2015-Apr-18 13:33N 45°34' W 122°44'0 0.0
2015-Apr-18 12:33N 45°34' W 122°44'0 0.0
2015-Apr-18 11:33N 45°34' W 122°44'0 0.0
2015-Apr-18 10:34N 45°34' W 122°44'0 0.0
2015-Apr-18 09:33N 45°34' W 122°44'0 0.0
2015-Apr-18 08:33N 45°34' W 122°44'0 0.0
2015-Apr-18 07:34N 45°34' W 122°44'0 0.0
2015-Apr-18 06:33N 45°34' W 122°44'0 0.0
2015-Apr-18 05:34N 45°34' W 122°44'0 0.3
2015-Apr-18 04:33N 45°34' W 122°43'3 2.7
2015-Apr-18 03:33N 45°32' W 122°40'8 8.0
2015-Apr-18 02:33N 45°38' W 122°47'3 2.6
2015-Apr-18 01:33N 45°38' W 122°43'0 0.3
2015-Apr-18 00:33N 45°39' W 122°43'1 1.2
2015-Apr-17 23:33N 45°39' W 122°45'0 0.0
2015-Apr-17 22:33N 45°39' W 122°45'0 0.0
2015-Apr-17 21:33N 45°39' W 122°45'0 0.0
2015-Apr-17 20:33N 45°39' W 122°45'0 0.0
2015-Apr-17 19:33N 45°39' W 122°45'0 0.0
2015-Apr-17 18:33N 45°39' W 122°45'  
Track history (hours):
 
Tides and Currents Weather Stations Pressure Air Temp Water Temp Dewpoint Dewpoint Depression Visibility Wind Speed Wind Dir Waves Ship Positions

Portland

Owner: Shaver Transportation Company, Portland, OR. More information available from US FCC via Universal Licensing System and Coast Guard Vessel Documentation Center.

Last reported at 2015-Apr-27 18:06 UTC. Time now 2015-Apr-28 11:52 UTC.
Position N 45°39' W 122°45'.

Length 27 m; draft 4 m.

Type: Towing. MMSI: 367315814.

Date/timePositionNaut miles runAvg speedWind from/ knotsBaromVisibWave heightAir tempDewpointWater temp
2015-Apr-27 18:06N 45°39' W 122°45'0 0.0
2015-Apr-27 17:33N 45°39' W 122°45'0 0.0
2015-Apr-27 16:33N 45°39' W 122°45'0 0.0
2015-Apr-27 15:33N 45°39' W 122°45'0 0.0
2015-Apr-27 14:33N 45°39' W 122°45'0 0.0
2015-Apr-27 13:33N 45°39' W 122°45'0 0.3
2015-Apr-27 12:33N 45°39' W 122°45'0 0.3
2015-Apr-27 11:33N 45°39' W 122°45'0 0.0
2015-Apr-27 10:31N 45°39' W 122°45'0 0.0
2015-Apr-27 09:31N 45°39' W 122°45'0 0.0
2015-Apr-27 08:31N 45°39' W 122°45'0 0.0
2015-Apr-27 07:31N 45°39' W 122°45'0 0.0
2015-Apr-27 06:31N 45°39' W 122°45'0 0.0
2015-Apr-27 05:31N 45°39' W 122°45'0 0.0
2015-Apr-27 04:25N 45°39' W 122°45'0 0.0
2015-Apr-27 03:31N 45°39' W 122°45'0 0.0
2015-Apr-27 02:31N 45°39' W 122°45'0 0.0
2015-Apr-27 01:16N 45°39' W 122°45'0 0.0
2015-Apr-27 00:31N 45°39' W 122°45'0 0.0
2015-Apr-26 23:28N 45°39' W 122°45'0 0.0
2015-Apr-26 22:31N 45°39' W 122°45'0 0.0
2015-Apr-26 21:31N 45°39' W 122°45'0 0.0
2015-Apr-26 20:31N 45°39' W 122°45'0 0.0
2015-Apr-26 19:31N 45°39' W 122°45'0 0.0
2015-Apr-26 18:31N 45°39' W 122°45'0 0.0
2015-Apr-26 17:31N 45°39' W 122°45'0 0.0
2015-Apr-26 16:31N 45°39' W 122°45'0 0.0
2015-Apr-26 15:31N 45°39' W 122°45'0 0.0
2015-Apr-26 14:31N 45°39' W 122°45'0 0.0
2015-Apr-26 13:31N 45°39' W 122°45'0 0.0
2015-Apr-26 12:25N 45°39' W 122°45'0 0.0
2015-Apr-26 11:31N 45°39' W 122°45'0 0.0
2015-Apr-26 10:31N 45°39' W 122°45'0 0.0
2015-Apr-26 09:31N 45°39' W 122°45'0 0.0
2015-Apr-26 08:31N 45°39' W 122°45'0 0.0
2015-Apr-26 07:31N 45°39' W 122°45'0 0.0
2015-Apr-26 06:31N 45°39' W 122°45'0 0.0
2015-Apr-26 05:31N 45°39' W 122°45'0 0.0
2015-Apr-26 04:31N 45°39' W 122°45'0 0.0
2015-Apr-26 03:31N 45°39' W 122°45'0 0.0
2015-Apr-26 02:31N 45°39' W 122°45'0 0.0
2015-Apr-26 01:28N 45°39' W 122°45'0 0.0
2015-Apr-26 00:25N 45°39' W 122°45'0 0.0
2015-Apr-25 23:28N 45°39' W 122°45'1 1.6
2015-Apr-25 22:33N 45°38' W 122°43'0 0.0
2015-Apr-25 21:33N 45°38' W 122°43'1 1.4
2015-Apr-25 20:33N 45°39' W 122°45'0 0.0
2015-Apr-25 19:33N 45°39' W 122°45'0 0.0
2015-Apr-25 18:34N 45°39' W 122°45'0 0.0
2015-Apr-25 17:34N 45°39' W 122°45'0 0.0
2015-Apr-25 16:34N 45°39' W 122°45'0 0.0
2015-Apr-25 15:33N 45°39' W 122°45'0 0.0
2015-Apr-25 14:33N 45°39' W 122°45'0 0.0
2015-Apr-25 13:33N 45°39' W 122°45'0 0.0
2015-Apr-25 12:34N 45°39' W 122°45'0 0.2
2015-Apr-25 11:33N 45°39' W 122°45'1 1.4
2015-Apr-25 10:33N 45°38' W 122°43'2 1.5
2015-Apr-25 09:34N 45°39' W 122°45'0 0.4
2015-Apr-25 08:34N 45°39' W 122°45'0 0.4
2015-Apr-25 07:34N 45°39' W 122°45'0 0.0
2015-Apr-25 06:33N 45°39' W 122°45'0 0.0
2015-Apr-25 05:34N 45°39' W 122°45'0 0.0
2015-Apr-25 04:33N 45°39' W 122°45'0 0.0
2015-Apr-25 03:34N 45°39' W 122°45'0 0.0
2015-Apr-25 02:33N 45°39' W 122°45'0 0.0
2015-Apr-25 01:33N 45°39' W 122°45'0 0.0
2015-Apr-25 00:34N 45°39' W 122°45'1 0.6
2015-Apr-24 23:33N 45°39' W 122°46'3 3.1
2015-Apr-24 22:34N 45°36' W 122°46'1 0.9
2015-Apr-24 21:34N 45°37' W 122°47'5 4.5
2015-Apr-24 20:33N 45°33' W 122°43'1 0.5
2015-Apr-24 19:23N 45°34' W 122°44'0 0.0
2015-Apr-24 18:32N 45°34' W 122°44'0 0.0
2015-Apr-24 17:32N 45°34' W 122°44'0 0.0
2015-Apr-24 16:32N 45°34' W 122°44'0 0.0
2015-Apr-24 15:23N 45°34' W 122°44'0 0.0
2015-Apr-24 14:32N 45°34' W 122°44'0 0.0
2015-Apr-24 13:29N 45°34' W 122°44'0 0.0
2015-Apr-24 12:26N 45°34' W 122°44'0 0.0
2015-Apr-24 11:29N 45°34' W 122°44'0 0.0
2015-Apr-24 10:32N 45°34' W 122°44'0 0.0
2015-Apr-24 09:32N 45°34' W 122°44'0 0.0
2015-Apr-24 08:26N 45°34' W 122°44'0 0.0
2015-Apr-24 07:29N 45°34' W 122°44'0 0.0
2015-Apr-24 06:29N 45°34' W 122°44'0 0.0
2015-Apr-24 05:32N 45°34' W 122°44'0 0.0
2015-Apr-24 04:29N 45°34' W 122°44'0 0.0
2015-Apr-24 03:29N 45°34' W 122°44'0 0.0
2015-Apr-24 02:32N 45°34' W 122°44'0 0.0
2015-Apr-24 01:29N 45°34' W 122°44'0 0.0
2015-Apr-24 00:32N 45°34' W 122°44'0 0.0
2015-Apr-23 23:32N 45°34' W 122°44'0 0.0
2015-Apr-23 22:32N 45°34' W 122°44'0 0.0
2015-Apr-23 21:32N 45°34' W 122°44'0 0.0
2015-Apr-23 20:29N 45°34' W 122°44'0 0.1
2015-Apr-23 19:28N 45°34' W 122°44'0 0.0
2015-Apr-23 18:28N 45°34' W 122°44'0 0.0
2015-Apr-23 17:31N 45°34' W 122°44'0 0.0
2015-Apr-23 16:28N 45°34' W 122°44'0 0.0
2015-Apr-23 15:28N 45°34' W 122°44'0 0.0
2015-Apr-23 14:22N 45°34' W 122°44'0 0.0
2015-Apr-23 13:28N 45°34' W 122°44'0 0.0
2015-Apr-23 12:28N 45°34' W 122°44'0 0.0
2015-Apr-23 11:28N 45°34' W 122°44'0 0.0
2015-Apr-23 10:28N 45°34' W 122°44'0 0.0
2015-Apr-23 09:31N 45°34' W 122°44'0 0.0
2015-Apr-23 07:10N 45°34' W 122°44'0 0.0
2015-Apr-23 06:28N 45°34' W 122°44'0 0.0
2015-Apr-23 05:31N 45°34' W 122°44'0 0.0
2015-Apr-23 04:28N 45°34' W 122°44'0 0.0
2015-Apr-23 03:28N 45°34' W 122°44'0 0.0
2015-Apr-23 02:22N 45°34' W 122°44'0 0.0
2015-Apr-23 01:25N 45°34' W 122°44'0 0.0
2015-Apr-23 00:31N 45°34' W 122°44'0 0.0
2015-Apr-22 23:28N 45°34' W 122°44'0 0.0
2015-Apr-22 22:28N 45°34' W 122°44'0 0.0
2015-Apr-22 21:22N 45°34' W 122°44'0 0.0
2015-Apr-22 20:28N 45°34' W 122°44'0 0.0
2015-Apr-22 19:28N 45°34' W 122°44'6 6.2
2015-Apr-22 18:34N 45°39' W 122°46'3 2.4
2015-Apr-22 17:30N 45°38' W 122°42'2 2.0
2015-Apr-22 16:28N 45°39' W 122°45'0 0.0
2015-Apr-22 15:31N 45°39' W 122°45'0 0.0
2015-Apr-22 14:31N 45°39' W 122°45'0 0.0
2015-Apr-22 13:31N 45°39' W 122°45'0 0.0
2015-Apr-22 12:31N 45°39' W 122°45'0 0.0
2015-Apr-22 11:31N 45°39' W 122°45'0 0.0
2015-Apr-22 10:28N 45°39' W 122°45'0 0.0
2015-Apr-22 09:31N 45°39' W 122°45'0 0.0
2015-Apr-22 08:31N 45°39' W 122°45'0 0.0
2015-Apr-22 07:28N 45°39' W 122°45'0 0.0
2015-Apr-22 06:28N 45°39' W 122°45'0 0.0
2015-Apr-22 05:22N 45°39' W 122°45'0 0.0
2015-Apr-22 04:28N 45°39' W 122°45'0 0.0
2015-Apr-22 03:31N 45°39' W 122°45'0 0.0
2015-Apr-22 02:28N 45°39' W 122°45'0 0.0
2015-Apr-22 01:28N 45°39' W 122°45'0 0.0
2015-Apr-22 00:31N 45°39' W 122°45'0 0.0
2015-Apr-21 23:31N 45°39' W 122°45'0 0.0
2015-Apr-21 22:25N 45°39' W 122°45'0 0.0
2015-Apr-21 21:28N 45°39' W 122°45'0 0.0
2015-Apr-21 20:31N 45°39' W 122°45'0 0.0
2015-Apr-21 19:28N 45°39' W 122°45'0 0.0
2015-Apr-21 18:31N 45°39' W 122°45'0 0.0
2015-Apr-21 17:22N 45°39' W 122°45'0 0.0
2015-Apr-21 16:28N 45°39' W 122°45'0 0.0
2015-Apr-21 15:31N 45°39' W 122°45'0 0.0
2015-Apr-21 14:28N 45°39' W 122°45'0 0.0
2015-Apr-21 13:28N 45°39' W 122°45'0 0.0
2015-Apr-21 12:28N 45°39' W 122°45'0 0.0
2015-Apr-21 11:28N 45°39' W 122°45'0 0.0
2015-Apr-21 10:28N 45°39' W 122°45'0 0.0
2015-Apr-21 09:31N 45°39' W 122°45'0 0.0
2015-Apr-21 08:31N 45°39' W 122°45'0 0.0
2015-Apr-21 07:28N 45°39' W 122°45'0 0.0
2015-Apr-21 06:31N 45°39' W 122°45'0 0.0
2015-Apr-21 05:31N 45°39' W 122°45'0 0.0
2015-Apr-21 04:25N 45°39' W 122°45'0 0.0
2015-Apr-21 03:31N 45°39' W 122°45'0 0.0
2015-Apr-21 02:31N 45°39' W 122°45'0 0.0
2015-Apr-21 01:25N 45°39' W 122°45'0 0.0
2015-Apr-21 00:28N 45°39' W 122°45'0 0.0
2015-Apr-20 23:31N 45°39' W 122°45'0 0.0
2015-Apr-20 22:31N 45°39' W 122°45'0 0.0
2015-Apr-20 21:31N 45°39' W 122°45'0 0.0
2015-Apr-20 20:31N 45°39' W 122°45'0 0.0
2015-Apr-20 19:31N 45°39' W 122°45'0 0.0
2015-Apr-20 18:28N 45°39' W 122°45'0 0.0
2015-Apr-20 17:28N 45°39' W 122°45'0 0.0
2015-Apr-20 16:28N 45°39' W 122°45'0 0.0
2015-Apr-20 15:25N 45°39' W 122°45'0 0.0
2015-Apr-20 14:19N 45°39' W 122°45'0 0.0
2015-Apr-20 13:31N 45°39' W 122°45'0 0.0
2015-Apr-20 12:33N 45°39' W 122°45'3 2.9
2015-Apr-20 11:34N 45°36' W 122°47'1 1.4
2015-Apr-20 10:33N 45°37' W 122°47'2 2.1
2015-Apr-20 09:32N 45°39' W 122°45'0 0.0
2015-Apr-20 08:32N 45°39' W 122°45'0 0.0
2015-Apr-20 07:26N 45°39' W 122°45'0 0.3
2015-Apr-20 06:34N 45°39' W 122°45'1 1.3
2015-Apr-20 05:33N 45°38' W 122°43'2 1.6
2015-Apr-20 04:33N 45°39' W 122°45'0 0.0
2015-Apr-20 03:09N 45°39' W 122°45'0 0.0
2015-Apr-20 02:33N 45°39' W 122°45'0 0.0
2015-Apr-20 01:33N 45°39' W 122°45'0 0.0
2015-Apr-20 00:30N 45°39' W 122°45'0 0.0
2015-Apr-19 23:33N 45°39' W 122°45'0 0.0
2015-Apr-19 22:27N 45°39' W 122°45'0 0.0
2015-Apr-19 21:27N 45°39' W 122°45'0 0.0
2015-Apr-19 20:33N 45°39' W 122°45'0 0.0
2015-Apr-19 19:33N 45°39' W 122°45'0 0.0
2015-Apr-19 18:27N 45°39' W 122°45'0 0.0
2015-Apr-19 17:33N 45°39' W 122°45'0 0.0
2015-Apr-19 16:33N 45°39' W 122°45'0 0.0
2015-Apr-19 15:30N 45°39' W 122°45'0 0.0
2015-Apr-19 14:33N 45°39' W 122°45'0 0.0
2015-Apr-19 13:33N 45°39' W 122°45'0 0.0
2015-Apr-19 12:33N 45°39' W 122°45'1 0.8
2015-Apr-19 11:33N 45°39' W 122°46'1 0.6
2015-Apr-19 10:33N 45°39' W 122°47'1 1.0
2015-Apr-19 09:33N 45°39' W 122°45'0 0.0
2015-Apr-19 08:33N 45°39' W 122°45'0 0.0
2015-Apr-19 07:33N 45°39' W 122°45'1 1.3
2015-Apr-19 06:33N 45°38' W 122°43'1 1.1
2015-Apr-19 05:33N 45°38' W 122°42'0 0.3
2015-Apr-19 04:33N 45°38' W 122°42'2 2.1
2015-Apr-19 03:33N 45°39' W 122°45'0 0.0
2015-Apr-19 02:33N 45°39' W 122°45'0 0.0
2015-Apr-19 01:33N 45°39' W 122°45'0 0.0
2015-Apr-19 00:33N 45°39' W 122°45'0 0.0
2015-Apr-18 23:34N 45°39' W 122°45'0 0.0
2015-Apr-18 22:33N 45°39' W 122°45'0 0.0
2015-Apr-18 21:33N 45°39' W 122°45'0 0.0
2015-Apr-18 20:33N 45°39' W 122°45'0 0.0
2015-Apr-18 19:33N 45°39' W 122°45'0 0.0
2015-Apr-18 18:33N 45°39' W 122°45'0 0.0
2015-Apr-18 17:33N 45°39' W 122°45'0 0.0
2015-Apr-18 16:33N 45°39' W 122°45'0 0.0
2015-Apr-18 15:34N 45°39' W 122°45'4 4.3
2015-Apr-18 14:33N 45°34' W 122°45'1 0.9
2015-Apr-18 13:33N 45°34' W 122°44'0 0.0
2015-Apr-18 12:33N 45°34' W 122°44'0 0.0
2015-Apr-18 11:33N 45°34' W 122°44'0 0.0
2015-Apr-18 10:34N 45°34' W 122°44'0 0.0
2015-Apr-18 09:33N 45°34' W 122°44'0 0.0
2015-Apr-18 08:33N 45°34' W 122°44'0 0.0
2015-Apr-18 07:34N 45°34' W 122°44'0 0.0
2015-Apr-18 06:33N 45°34' W 122°44'0 0.0
2015-Apr-18 05:34N 45°34' W 122°44'0 0.3
2015-Apr-18 04:33N 45°34' W 122°43'3 2.7
2015-Apr-18 03:33N 45°32' W 122°40'8 8.0
2015-Apr-18 02:33N 45°38' W 122°47'3 2.6
2015-Apr-18 01:33N 45°38' W 122°43'0 0.3
2015-Apr-18 00:33N 45°39' W 122°43'1 1.2
2015-Apr-17 23:33N 45°39' W 122°45'0 0.0
2015-Apr-17 22:33N 45°39' W 122°45'0 0.0
2015-Apr-17 21:33N 45°39' W 122°45'0 0.0
2015-Apr-17 20:33N 45°39' W 122°45'0 0.0
2015-Apr-17 19:33N 45°39' W 122°45'0 0.0
2015-Apr-17 18:33N 45°39' W 122°45'  

Dump ship's entire track history